Lamont, Kansas
Current Conditions -  °F | °C
As of 8:53 PM on Monday 22 Dec 2014 (Local Time) from KEMP Reporting Station
Clear Clear  
Wind Chill: -2°   Ceiling: Unl
Heat Index:   Visibility: 10mi
Dew Point:   Wind: 7mph
Humidity: 89%   Direction: 220°SW
Pressure: 29.57"   Gusts: NA
Location:  38.11°N, 96.03°W
Report Text: KEMP 230253Z AUTO 22006KT 10SM CLR 02/00 A2957 RMK AO2 SLP022 T00170000 51013
Loading
Personal Weather Stations






























Interactive Weather Map New forecast layout! Learn more

10-Day Weather Forecast

Advertisements
Track Severe Weather on mobile